sensor_id;sensor_type;location;lat;lon;timestamp;P1;durP1;ratioP1;P2;durP2;ratioP2
7515;SDS011;3799;47.184;8.538;2022-12-29T00:02:01;1.30;;;0.40;;
7515;SDS011;3799;47.184;8.538;2022-12-29T00:04:28;2.17;;;0.55;;
7515;SDS011;3799;47.184;8.538;2022-12-29T00:06:55;0.93;;;0.35;;
7515;SDS011;3799;47.184;8.538;2022-12-29T00:09:22;1.05;;;0.22;;
7515;SDS011;3799;47.184;8.538;2022-12-29T00:11:49;0.93;;;0.30;;
7515;SDS011;3799;47.184;8.538;2022-12-29T00:14:18;1.58;;;0.40;;
7515;SDS011;3799;47.184;8.538;2022-12-29T00:17:04;1.85;;;0.20;;
7515;SDS011;3799;47.184;8.538;2022-12-29T00:19:34;2.13;;;0.40;;
7515;SDS011;3799;47.184;8.538;2022-12-29T00:22:21;1.25;;;0.43;;
7515;SDS011;3799;47.184;8.538;2022-12-29T00:25:08;1.20;;;0.40;;
7515;SDS011;3799;47.184;8.538;2022-12-29T00:27:54;1.75;;;0.40;;
7515;SDS011;3799;47.184;8.538;2022-12-29T00:30:40;1.58;;;0.30;;
7515;SDS011;3799;47.184;8.538;2022-12-29T00:33:28;1.30;;;0.30;;
7515;SDS011;3799;47.184;8.538;2022-12-29T00:36:16;2.22;;;0.77;;
7515;SDS011;3799;47.184;8.538;2022-12-29T00:41:43;1.40;;;0.50;;
7515;SDS011;3799;47.184;8.538;2022-12-29T00:44:29;0.75;;;0.15;;
7515;SDS011;3799;47.184;8.538;2022-12-29T00:46:57;1.30;;;0.30;;
7515;SDS011;3799;47.184;8.538;2022-12-29T00:49:29;1.30;;;0.35;;
7515;SDS011;3799;47.184;8.538;2022-12-29T00:54:24;1.63;;;0.40;;
7515;SDS011;3799;47.184;8.538;2022-12-29T00:56:51;1.05;;;0.35;;
7515;SDS011;3799;47.184;8.538;2022-12-29T00:59:19;1.95;;;0.40;;
7515;SDS011;3799;47.184;8.538;2022-12-29T01:01:49;0.90;;;0.30;;
7515;SDS011;3799;47.184;8.538;2022-12-29T01:04:16;1.58;;;0.30;;
7515;SDS011;3799;47.184;8.538;2022-12-29T01:06:43;0.60;;;0.20;;
7515;SDS011;3799;47.184;8.538;2022-12-29T01:09:13;1.17;;;0.30;;
7515;SDS011;3799;47.184;8.538;2022-12-29T01:11:59;3.00;;;0.50;;
7515;SDS011;3799;47.184;8.538;2022-12-29T01:14:26;0.75;;;0.20;;
7515;SDS011;3799;47.184;8.538;2022-12-29T01:16:54;3.15;;;0.55;;
7515;SDS011;3799;47.184;8.538;2022-12-29T01:19:21;0.85;;;0.38;;
7515;SDS011;3799;47.184;8.538;2022-12-29T01:21:49;3.03;;;0.40;;
7515;SDS011;3799;47.184;8.538;2022-12-29T01:24:17;1.00;;;0.20;;
7515;SDS011;3799;47.184;8.538;2022-12-29T01:26:45;2.08;;;0.47;;
7515;SDS011;3799;47.184;8.538;2022-12-29T01:29:13;1.17;;;0.30;;
7515;SDS011;3799;47.184;8.538;2022-12-29T01:31:40;0.85;;;0.30;;
7515;SDS011;3799;47.184;8.538;2022-12-29T01:34:10;1.02;;;0.40;;
7515;SDS011;3799;47.184;8.538;2022-12-29T01:36:37;3.17;;;0.35;;
7515;SDS011;3799;47.184;8.538;2022-12-29T01:39:04;1.38;;;0.40;;
7515;SDS011;3799;47.184;8.538;2022-12-29T01:41:33;1.17;;;0.35;;
7515;SDS011;3799;47.184;8.538;2022-12-29T01:44:00;0.93;;;0.43;;
7515;SDS011;3799;47.184;8.538;2022-12-29T01:46:29;1.15;;;0.35;;
7515;SDS011;3799;47.184;8.538;2022-12-29T01:49:16;0.77;;;0.30;;
7515;SDS011;3799;47.184;8.538;2022-12-29T01:54:22;3.45;;;0.40;;
7515;SDS011;3799;47.184;8.538;2022-12-29T01:56:55;1.55;;;0.50;;
7515;SDS011;3799;47.184;8.538;2022-12-29T01:59:27;1.45;;;0.45;;
7515;SDS011;3799;47.184;8.538;2022-12-29T02:01:57;1.08;;;0.40;;
7515;SDS011;3799;47.184;8.538;2022-12-29T02:04:24;1.27;;;0.50;;
7515;SDS011;3799;47.184;8.538;2022-12-29T02:07:01;1.02;;;0.40;;
7515;SDS011;3799;47.184;8.538;2022-12-29T02:09:35;2.25;;;0.50;;
7515;SDS011;3799;47.184;8.538;2022-12-29T02:12:02;2.50;;;0.45;;
7515;SDS011;3799;47.184;8.538;2022-12-29T02:14:30;1.00;;;0.30;;
7515;SDS011;3799;47.184;8.538;2022-12-29T02:30:31;1.10;;;0.32;;
7515;SDS011;3799;47.184;8.538;2022-12-29T02:44:52;1.73;;;0.57;;
7515;SDS011;3799;47.184;8.538;2022-12-29T02:47:30;1.73;;;0.40;;
7515;SDS011;3799;47.184;8.538;2022-12-29T02:50:17;1.40;;;0.40;;
7515;SDS011;3799;47.184;8.538;2022-12-29T02:52:54;1.67;;;0.40;;
7515;SDS011;3799;47.184;8.538;2022-12-29T02:55:26;1.73;;;0.55;;
7515;SDS011;3799;47.184;8.538;2022-12-29T03:00:36;2.08;;;0.55;;
7515;SDS011;3799;47.184;8.538;2022-12-29T03:12:18;4.15;;;0.30;;
7515;SDS011;3799;47.184;8.538;2022-12-29T03:17:55;1.75;;;0.40;;
7515;SDS011;3799;47.184;8.538;2022-12-29T03:20:31;2.63;;;0.43;;
7515;SDS011;3799;47.184;8.538;2022-12-29T03:23:08;1.58;;;0.52;;
7515;SDS011;3799;47.184;8.538;2022-12-29T03:25:38;0.80;;;0.28;;
7515;SDS011;3799;47.184;8.538;2022-12-29T03:28:18;1.30;;;0.45;;
7515;SDS011;3799;47.184;8.538;2022-12-29T03:31:07;1.25;;;0.30;;
7515;SDS011;3799;47.184;8.538;2022-12-29T03:33:35;0.73;;;0.20;;
7515;SDS011;3799;47.184;8.538;2022-12-29T03:36:06;1.70;;;0.45;;
7515;SDS011;3799;47.184;8.538;2022-12-29T03:38:40;1.55;;;0.63;;
7515;SDS011;3799;47.184;8.538;2022-12-29T03:41:18;1.20;;;0.50;;
7515;SDS011;3799;47.184;8.538;2022-12-29T03:43:49;1.10;;;0.20;;
7515;SDS011;3799;47.184;8.538;2022-12-29T03:46:16;1.80;;;0.50;;
7515;SDS011;3799;47.184;8.538;2022-12-29T03:48:43;1.95;;;0.50;;
7515;SDS011;3799;47.184;8.538;2022-12-29T03:51:10;2.38;;;0.65;;
7515;SDS011;3799;47.184;8.538;2022-12-29T03:53:37;0.88;;;0.30;;
7515;SDS011;3799;47.184;8.538;2022-12-29T03:56:04;0.85;;;0.30;;
7515;SDS011;3799;47.184;8.538;2022-12-29T03:58:31;0.80;;;0.28;;
7515;SDS011;3799;47.184;8.538;2022-12-29T04:00:59;2.13;;;0.52;;
7515;SDS011;3799;47.184;8.538;2022-12-29T04:03:26;1.00;;;0.20;;
7515;SDS011;3799;47.184;8.538;2022-12-29T04:05:53;0.75;;;0.20;;
7515;SDS011;3799;47.184;8.538;2022-12-29T04:08:20;3.30;;;0.52;;
7515;SDS011;3799;47.184;8.538;2022-12-29T04:10:48;2.80;;;0.38;;
7515;SDS011;3799;47.184;8.538;2022-12-29T04:13:15;1.85;;;0.43;;
7515;SDS011;3799;47.184;8.538;2022-12-29T04:15:43;1.83;;;0.40;;
7515;SDS011;3799;47.184;8.538;2022-12-29T04:18:11;1.00;;;0.40;;
7515;SDS011;3799;47.184;8.538;2022-12-29T04:20:39;1.70;;;0.55;;
7515;SDS011;3799;47.184;8.538;2022-12-29T04:23:30;0.75;;;0.25;;
7515;SDS011;3799;47.184;8.538;2022-12-29T04:25:58;1.15;;;0.40;;
7515;SDS011;3799;47.184;8.538;2022-12-29T04:28:25;2.78;;;0.43;;
7515;SDS011;3799;47.184;8.538;2022-12-29T04:30:53;1.52;;;0.52;;
7515;SDS011;3799;47.184;8.538;2022-12-29T04:33:21;1.95;;;0.40;;
7515;SDS011;3799;47.184;8.538;2022-12-29T04:35:48;1.85;;;0.52;;
7515;SDS011;3799;47.184;8.538;2022-12-29T04:38:15;2.67;;;0.60;;
7515;SDS011;3799;47.184;8.538;2022-12-29T04:40:44;4.18;;;0.80;;
7515;SDS011;3799;47.184;8.538;2022-12-29T04:43:11;2.88;;;0.80;;
7515;SDS011;3799;47.184;8.538;2022-12-29T04:45:42;5.20;;;1.00;;
7515;SDS011;3799;47.184;8.538;2022-12-29T04:48:13;2.13;;;0.80;;
7515;SDS011;3799;47.184;8.538;2022-12-29T04:50:41;2.40;;;1.10;;
7515;SDS011;3799;47.184;8.538;2022-12-29T04:53:08;2.10;;;0.70;;
7515;SDS011;3799;47.184;8.538;2022-12-29T04:55:35;2.13;;;0.80;;
7515;SDS011;3799;47.184;8.538;2022-12-29T04:58:02;2.35;;;0.88;;
7515;SDS011;3799;47.184;8.538;2022-12-29T05:00:29;1.42;;;0.60;;
7515;SDS011;3799;47.184;8.538;2022-12-29T05:02:56;2.08;;;0.80;;
7515;SDS011;3799;47.184;8.538;2022-12-29T05:05:24;1.42;;;0.60;;
7515;SDS011;3799;47.184;8.538;2022-12-29T05:07:51;1.90;;;0.57;;
7515;SDS011;3799;47.184;8.538;2022-12-29T05:10:17;1.15;;;0.55;;
7515;SDS011;3799;47.184;8.538;2022-12-29T05:12:44;1.38;;;0.50;;
7515;SDS011;3799;47.184;8.538;2022-12-29T05:15:11;2.42;;;0.43;;
7515;SDS011;3799;47.184;8.538;2022-12-29T05:17:39;1.52;;;0.32;;
7515;SDS011;3799;47.184;8.538;2022-12-29T05:20:06;1.45;;;0.40;;
7515;SDS011;3799;47.184;8.538;2022-12-29T05:22:34;1.77;;;0.40;;
7515;SDS011;3799;47.184;8.538;2022-12-29T05:25:03;2.80;;;0.40;;
7515;SDS011;3799;47.184;8.538;2022-12-29T05:27:31;1.27;;;0.43;;
7515;SDS011;3799;47.184;8.538;2022-12-29T05:29:58;2.50;;;0.40;;
7515;SDS011;3799;47.184;8.538;2022-12-29T05:32:27;1.05;;;0.32;;
7515;SDS011;3799;47.184;8.538;2022-12-29T05:34:54;0.95;;;0.30;;
7515;SDS011;3799;47.184;8.538;2022-12-29T05:37:21;1.33;;;0.60;;
7515;SDS011;3799;47.184;8.538;2022-12-29T05:39:49;2.13;;;0.38;;
7515;SDS011;3799;47.184;8.538;2022-12-29T05:42:15;1.88;;;0.50;;
7515;SDS011;3799;47.184;8.538;2022-12-29T05:44:43;2.78;;;0.52;;
7515;SDS011;3799;47.184;8.538;2022-12-29T05:47:12;1.42;;;0.50;;
7515;SDS011;3799;47.184;8.538;2022-12-29T05:49:39;3.00;;;0.30;;
7515;SDS011;3799;47.184;8.538;2022-12-29T05:52:06;0.95;;;0.35;;
7515;SDS011;3799;47.184;8.538;2022-12-29T05:54:33;1.13;;;0.30;;
7515;SDS011;3799;47.184;8.538;2022-12-29T05:57:02;1.27;;;0.47;;
7515;SDS011;3799;47.184;8.538;2022-12-29T05:59:29;2.05;;;0.32;;
7515;SDS011;3799;47.184;8.538;2022-12-29T06:01:56;1.40;;;0.47;;
7515;SDS011;3799;47.184;8.538;2022-12-29T06:04:23;1.08;;;0.50;;
7515;SDS011;3799;47.184;8.538;2022-12-29T06:06:50;1.58;;;0.52;;
7515;SDS011;3799;47.184;8.538;2022-12-29T06:09:17;1.55;;;0.50;;
7515;SDS011;3799;47.184;8.538;2022-12-29T06:11:44;3.22;;;0.80;;
7515;SDS011;3799;47.184;8.538;2022-12-29T06:14:11;3.92;;;1.42;;
7515;SDS011;3799;47.184;8.538;2022-12-29T06:16:38;4.22;;;1.10;;
7515;SDS011;3799;47.184;8.538;2022-12-29T06:19:05;4.03;;;1.65;;
7515;SDS011;3799;47.184;8.538;2022-12-29T06:21:32;3.97;;;1.45;;
7515;SDS011;3799;47.184;8.538;2022-12-29T06:23:59;5.60;;;1.20;;
7515;SDS011;3799;47.184;8.538;2022-12-29T06:26:26;4.90;;;1.98;;
7515;SDS011;3799;47.184;8.538;2022-12-29T06:28:56;2.25;;;0.90;;
7515;SDS011;3799;47.184;8.538;2022-12-29T06:31:22;4.70;;;0.95;;
7515;SDS011;3799;47.184;8.538;2022-12-29T06:33:49;4.38;;;1.42;;
7515;SDS011;3799;47.184;8.538;2022-12-29T06:36:16;4.78;;;1.35;;
7515;SDS011;3799;47.184;8.538;2022-12-29T06:38:43;3.00;;;0.77;;
7515;SDS011;3799;47.184;8.538;2022-12-29T06:41:10;3.30;;;0.85;;
7515;SDS011;3799;47.184;8.538;2022-12-29T06:43:37;2.70;;;0.65;;
7515;SDS011;3799;47.184;8.538;2022-12-29T06:46:04;3.15;;;0.75;;
7515;SDS011;3799;47.184;8.538;2022-12-29T06:48:31;2.55;;;0.93;;
7515;SDS011;3799;47.184;8.538;2022-12-29T06:50:58;2.67;;;0.63;;
7515;SDS011;3799;47.184;8.538;2022-12-29T06:53:25;1.73;;;0.55;;
7515;SDS011;3799;47.184;8.538;2022-12-29T06:55:52;2.13;;;0.52;;
7515;SDS011;3799;47.184;8.538;2022-12-29T06:58:20;3.80;;;0.65;;
7515;SDS011;3799;47.184;8.538;2022-12-29T07:00:47;2.38;;;0.40;;
7515;SDS011;3799;47.184;8.538;2022-12-29T07:03:14;3.38;;;0.65;;
7515;SDS011;3799;47.184;8.538;2022-12-29T07:05:42;2.90;;;0.50;;
7515;SDS011;3799;47.184;8.538;2022-12-29T07:08:09;1.45;;;0.50;;
7515;SDS011;3799;47.184;8.538;2022-12-29T07:10:36;1.58;;;0.47;;
7515;SDS011;3799;47.184;8.538;2022-12-29T07:13:03;1.13;;;0.32;;
7515;SDS011;3799;47.184;8.538;2022-12-29T07:15:30;1.38;;;0.50;;
7515;SDS011;3799;47.184;8.538;2022-12-29T07:17:57;1.63;;;0.43;;
7515;SDS011;3799;47.184;8.538;2022-12-29T07:20:24;2.17;;;0.32;;
7515;SDS011;3799;47.184;8.538;2022-12-29T07:22:53;1.50;;;0.43;;
7515;SDS011;3799;47.184;8.538;2022-12-29T07:25:20;1.75;;;0.50;;
7515;SDS011;3799;47.184;8.538;2022-12-29T07:27:47;2.72;;;0.40;;
7515;SDS011;3799;47.184;8.538;2022-12-29T07:30:14;3.00;;;0.32;;
7515;SDS011;3799;47.184;8.538;2022-12-29T07:32:42;1.15;;;0.32;;
7515;SDS011;3799;47.184;8.538;2022-12-29T07:35:09;2.17;;;0.43;;
7515;SDS011;3799;47.184;8.538;2022-12-29T07:37:36;1.45;;;0.63;;
7515;SDS011;3799;47.184;8.538;2022-12-29T07:40:03;1.17;;;0.35;;
7515;SDS011;3799;47.184;8.538;2022-12-29T07:42:30;2.83;;;0.43;;
7515;SDS011;3799;47.184;8.538;2022-12-29T07:44:59;2.88;;;0.55;;
7515;SDS011;3799;47.184;8.538;2022-12-29T07:47:26;2.55;;;0.80;;
7515;SDS011;3799;47.184;8.538;2022-12-29T07:49:53;1.60;;;0.68;;
7515;SDS011;3799;47.184;8.538;2022-12-29T07:52:20;1.88;;;0.80;;
7515;SDS011;3799;47.184;8.538;2022-12-29T07:54:48;1.60;;;0.68;;
7515;SDS011;3799;47.184;8.538;2022-12-29T07:57:14;1.88;;;0.65;;
7515;SDS011;3799;47.184;8.538;2022-12-29T07:59:41;1.55;;;0.35;;
7515;SDS011;3799;47.184;8.538;2022-12-29T08:02:10;2.15;;;0.77;;
7515;SDS011;3799;47.184;8.538;2022-12-29T08:04:38;3.38;;;0.73;;
7515;SDS011;3799;47.184;8.538;2022-12-29T08:07:04;1.90;;;0.80;;
7515;SDS011;3799;47.184;8.538;2022-12-29T08:09:32;2.72;;;0.80;;
7515;SDS011;3799;47.184;8.538;2022-12-29T08:11:59;2.92;;;0.75;;
7515;SDS011;3799;47.184;8.538;2022-12-29T08:14:26;3.45;;;0.80;;
7515;SDS011;3799;47.184;8.538;2022-12-29T08:16:53;2.78;;;0.98;;
7515;SDS011;3799;47.184;8.538;2022-12-29T08:19:20;5.40;;;1.00;;
7515;SDS011;3799;47.184;8.538;2022-12-29T08:21:46;2.53;;;1.13;;
7515;SDS011;3799;47.184;8.538;2022-12-29T08:24:13;2.47;;;0.80;;
7515;SDS011;3799;47.184;8.538;2022-12-29T08:26:40;3.67;;;1.00;;
7515;SDS011;3799;47.184;8.538;2022-12-29T08:29:07;3.42;;;1.45;;
7515;SDS011;3799;47.184;8.538;2022-12-29T08:31:34;3.10;;;1.20;;
7515;SDS011;3799;47.184;8.538;2022-12-29T08:34:01;4.00;;;1.10;;
7515;SDS011;3799;47.184;8.538;2022-12-29T08:36:29;1.95;;;0.90;;
7515;SDS011;3799;47.184;8.538;2022-12-29T08:38:56;1.85;;;0.90;;
7515;SDS011;3799;47.184;8.538;2022-12-29T08:41:23;2.45;;;1.38;;
7515;SDS011;3799;47.184;8.538;2022-12-29T08:43:50;3.13;;;1.13;;
7515;SDS011;3799;47.184;8.538;2022-12-29T08:46:17;1.67;;;0.82;;
7515;SDS011;3799;47.184;8.538;2022-12-29T08:48:44;3.72;;;1.30;;
7515;SDS011;3799;47.184;8.538;2022-12-29T08:51:11;2.53;;;0.82;;
7515;SDS011;3799;47.184;8.538;2022-12-29T08:53:38;2.63;;;1.02;;
7515;SDS011;3799;47.184;8.538;2022-12-29T08:56:05;4.22;;;1.55;;
7515;SDS011;3799;47.184;8.538;2022-12-29T08:58:34;2.38;;;1.08;;
7515;SDS011;3799;47.184;8.538;2022-12-29T09:04:23;4.10;;;1.02;;
7515;SDS011;3799;47.184;8.538;2022-12-29T09:06:51;3.97;;;1.00;;
7515;SDS011;3799;47.184;8.538;2022-12-29T09:09:18;1.90;;;0.88;;
7515;SDS011;3799;47.184;8.538;2022-12-29T09:11:46;2.15;;;0.95;;
7515;SDS011;3799;47.184;8.538;2022-12-29T09:14:13;4.38;;;1.20;;
7515;SDS011;3799;47.184;8.538;2022-12-29T09:16:40;3.60;;;1.00;;
7515;SDS011;3799;47.184;8.538;2022-12-29T09:19:26;2.75;;;0.88;;
7515;SDS011;3799;47.184;8.538;2022-12-29T09:21:53;1.70;;;0.63;;
7515;SDS011;3799;47.184;8.538;2022-12-29T09:24:20;3.17;;;1.00;;
7515;SDS011;3799;47.184;8.538;2022-12-29T09:26:47;1.65;;;0.80;;
7515;SDS011;3799;47.184;8.538;2022-12-29T09:29:13;3.83;;;0.98;;
7515;SDS011;3799;47.184;8.538;2022-12-29T09:31:40;2.20;;;0.90;;
7515;SDS011;3799;47.184;8.538;2022-12-29T09:34:07;2.97;;;0.80;;
7515;SDS011;3799;47.184;8.538;2022-12-29T09:36:34;3.17;;;0.85;;
7515;SDS011;3799;47.184;8.538;2022-12-29T09:39:01;3.13;;;0.75;;
7515;SDS011;3799;47.184;8.538;2022-12-29T09:41:29;2.30;;;0.70;;
7515;SDS011;3799;47.184;8.538;2022-12-29T09:44:17;3.85;;;0.80;;
7515;SDS011;3799;47.184;8.538;2022-12-29T09:47:02;2.47;;;0.88;;
7515;SDS011;3799;47.184;8.538;2022-12-29T09:49:48;2.20;;;0.50;;
7515;SDS011;3799;47.184;8.538;2022-12-29T09:52:19;2.47;;;0.65;;
7515;SDS011;3799;47.184;8.538;2022-12-29T09:54:53;1.90;;;0.47;;
7515;SDS011;3799;47.184;8.538;2022-12-29T10:00:22;2.00;;;1.10;;
7515;SDS011;3799;47.184;8.538;2022-12-29T10:02:56;4.97;;;1.20;;
7515;SDS011;3799;47.184;8.538;2022-12-29T10:10:46;1.80;;;0.60;;
7515;SDS011;3799;47.184;8.538;2022-12-29T10:21:35;2.30;;;0.70;;
7515;SDS011;3799;47.184;8.538;2022-12-29T10:24:15;1.73;;;0.73;;
7515;SDS011;3799;47.184;8.538;2022-12-29T10:26:45;2.65;;;0.70;;
7515;SDS011;3799;47.184;8.538;2022-12-29T10:29:18;2.88;;;0.93;;
7515;SDS011;3799;47.184;8.538;2022-12-29T10:31:58;2.95;;;1.10;;
7515;SDS011;3799;47.184;8.538;2022-12-29T10:34:48;3.78;;;1.00;;
7515;SDS011;3799;47.184;8.538;2022-12-29T10:40:25;2.10;;;1.00;;
7515;SDS011;3799;47.184;8.538;2022-12-29T10:42:54;5.53;;;1.10;;
7515;SDS011;3799;47.184;8.538;2022-12-29T10:45:23;2.42;;;1.17;;
7515;SDS011;3799;47.184;8.538;2022-12-29T10:48:03;1.73;;;0.60;;
7515;SDS011;3799;47.184;8.538;2022-12-29T10:50:36;1.85;;;0.80;;
7515;SDS011;3799;47.184;8.538;2022-12-29T10:53:11;2.53;;;0.98;;
7515;SDS011;3799;47.184;8.538;2022-12-29T10:55:44;3.17;;;1.13;;
7515;SDS011;3799;47.184;8.538;2022-12-29T10:58:12;3.30;;;1.20;;
7515;SDS011;3799;47.184;8.538;2022-12-29T11:00:41;5.78;;;2.92;;
7515;SDS011;3799;47.184;8.538;2022-12-29T11:05:57;3.33;;;1.60;;
7515;SDS011;3799;47.184;8.538;2022-12-29T11:08:31;3.28;;;1.65;;
7515;SDS011;3799;47.184;8.538;2022-12-29T11:11:07;3.65;;;1.45;;
7515;SDS011;3799;47.184;8.538;2022-12-29T11:14:19;2.22;;;1.00;;
7515;SDS011;3799;47.184;8.538;2022-12-29T11:16:39;1.77;;;0.85;;
7515;SDS011;3799;47.184;8.538;2022-12-29T11:19:21;3.30;;;0.73;;
7515;SDS011;3799;47.184;8.538;2022-12-29T11:21:49;1.95;;;0.80;;
7515;SDS011;3799;47.184;8.538;2022-12-29T11:27:15;1.50;;;0.65;;
7515;SDS011;3799;47.184;8.538;2022-12-29T11:29:45;2.25;;;0.90;;
7515;SDS011;3799;47.184;8.538;2022-12-29T11:32:34;1.95;;;0.82;;
7515;SDS011;3799;47.184;8.538;2022-12-29T11:34:59;2.45;;;1.10;;
7515;SDS011;3799;47.184;8.538;2022-12-29T11:39:57;1.70;;;0.60;;
7515;SDS011;3799;47.184;8.538;2022-12-29T11:42:35;3.92;;;0.73;;
7515;SDS011;3799;47.184;8.538;2022-12-29T11:45:13;1.77;;;0.63;;
7515;SDS011;3799;47.184;8.538;2022-12-29T11:47:42;3.65;;;0.70;;
7515;SDS011;3799;47.184;8.538;2022-12-29T11:50:22;3.67;;;0.98;;
7515;SDS011;3799;47.184;8.538;2022-12-29T11:52:56;3.10;;;0.60;;
7515;SDS011;3799;47.184;8.538;2022-12-29T11:55:26;1.92;;;0.65;;
7515;SDS011;3799;47.184;8.538;2022-12-29T11:57:55;2.10;;;0.80;;
7515;SDS011;3799;47.184;8.538;2022-12-29T12:00:25;3.05;;;0.90;;
7515;SDS011;3799;47.184;8.538;2022-12-29T12:03:11;6.30;;;1.00;;
7515;SDS011;3799;47.184;8.538;2022-12-29T12:05:48;2.22;;;0.90;;
7515;SDS011;3799;47.184;8.538;2022-12-29T12:08:23;2.92;;;1.02;;
7515;SDS011;3799;47.184;8.538;2022-12-29T12:11:04;7.57;;;1.38;;
7515;SDS011;3799;47.184;8.538;2022-12-29T12:14:25;2.72;;;1.10;;
7515;SDS011;3799;47.184;8.538;2022-12-29T12:16:32;1.50;;;0.80;;
7515;SDS011;3799;47.184;8.538;2022-12-29T12:19:06;3.10;;;0.90;;
7515;SDS011;3799;47.184;8.538;2022-12-29T12:21:43;6.07;;;0.88;;
7515;SDS011;3799;47.184;8.538;2022-12-29T12:30:10;3.72;;;1.08;;
7515;SDS011;3799;47.184;8.538;2022-12-29T12:38:11;3.00;;;0.85;;
7515;SDS011;3799;47.184;8.538;2022-12-29T12:40:53;2.67;;;0.75;;
7515;SDS011;3799;47.184;8.538;2022-12-29T12:43:45;4.10;;;1.05;;
7515;SDS011;3799;47.184;8.538;2022-12-29T12:52:16;2.70;;;1.00;;
7515;SDS011;3799;47.184;8.538;2022-12-29T12:55:06;4.40;;;1.00;;
7515;SDS011;3799;47.184;8.538;2022-12-29T12:57:47;2.03;;;0.88;;
7515;SDS011;3799;47.184;8.538;2022-12-29T13:00:48;2.90;;;0.95;;
7515;SDS011;3799;47.184;8.538;2022-12-29T13:06:16;3.33;;;0.80;;
7515;SDS011;3799;47.184;8.538;2022-12-29T13:11:44;2.20;;;0.63;;
7515;SDS011;3799;47.184;8.538;2022-12-29T13:14:24;2.97;;;0.70;;
7515;SDS011;3799;47.184;8.538;2022-12-29T13:22:13;3.25;;;0.88;;
7515;SDS011;3799;47.184;8.538;2022-12-29T13:28:20;2.95;;;1.10;;
7515;SDS011;3799;47.184;8.538;2022-12-29T13:30:41;3.78;;;0.70;;
7515;SDS011;3799;47.184;8.538;2022-12-29T13:39:28;4.78;;;1.45;;
7515;SDS011;3799;47.184;8.538;2022-12-29T13:41:47;4.03;;;1.17;;
7515;SDS011;3799;47.184;8.538;2022-12-29T13:44:21;7.78;;;1.20;;
7515;SDS011;3799;47.184;8.538;2022-12-29T13:47:01;5.38;;;1.33;;
7515;SDS011;3799;47.184;8.538;2022-12-29T13:49:39;4.60;;;0.80;;
7515;SDS011;3799;47.184;8.538;2022-12-29T13:52:15;2.95;;;0.80;;
7515;SDS011;3799;47.184;8.538;2022-12-29T13:55:08;2.90;;;1.25;;
7515;SDS011;3799;47.184;8.538;2022-12-29T14:03:46;4.25;;;1.20;;
7515;SDS011;3799;47.184;8.538;2022-12-29T14:06:15;2.95;;;0.82;;
7515;SDS011;3799;47.184;8.538;2022-12-29T14:08:47;2.53;;;0.80;;
7515;SDS011;3799;47.184;8.538;2022-12-29T14:11:15;3.80;;;0.80;;
7515;SDS011;3799;47.184;8.538;2022-12-29T14:13:44;4.55;;;0.98;;
7515;SDS011;3799;47.184;8.538;2022-12-29T14:18:52;2.38;;;0.90;;
7515;SDS011;3799;47.184;8.538;2022-12-29T14:21:21;3.00;;;0.88;;
7515;SDS011;3799;47.184;8.538;2022-12-29T14:23:54;3.20;;;0.70;;
7515;SDS011;3799;47.184;8.538;2022-12-29T14:28:57;3.00;;;0.85;;
7515;SDS011;3799;47.184;8.538;2022-12-29T14:31:43;2.10;;;0.70;;
7515;SDS011;3799;47.184;8.538;2022-12-29T14:34:16;4.43;;;0.90;;
7515;SDS011;3799;47.184;8.538;2022-12-29T14:41:59;3.25;;;0.80;;
7515;SDS011;3799;47.184;8.538;2022-12-29T14:44:29;3.13;;;0.82;;
7515;SDS011;3799;47.184;8.538;2022-12-29T14:49:25;4.50;;;0.95;;
7515;SDS011;3799;47.184;8.538;2022-12-29T14:52:03;2.33;;;0.80;;
7515;SDS011;3799;47.184;8.538;2022-12-29T14:54:42;3.15;;;0.82;;
7515;SDS011;3799;47.184;8.538;2022-12-29T14:57:23;2.33;;;0.93;;
7515;SDS011;3799;47.184;8.538;2022-12-29T14:59:54;3.78;;;1.17;;
7515;SDS011;3799;47.184;8.538;2022-12-29T15:02:32;3.58;;;1.27;;
7515;SDS011;3799;47.184;8.538;2022-12-29T15:05:10;2.35;;;0.85;;
7515;SDS011;3799;47.184;8.538;2022-12-29T15:07:52;4.57;;;1.10;;
7515;SDS011;3799;47.184;8.538;2022-12-29T15:10:21;2.10;;;0.93;;
7515;SDS011;3799;47.184;8.538;2022-12-29T15:12:52;5.55;;;0.85;;
7515;SDS011;3799;47.184;8.538;2022-12-29T15:17:49;3.60;;;1.13;;
7515;SDS011;3799;47.184;8.538;2022-12-29T15:20:27;6.22;;;1.08;;
7515;SDS011;3799;47.184;8.538;2022-12-29T15:23:02;2.92;;;0.80;;
7515;SDS011;3799;47.184;8.538;2022-12-29T15:25:35;1.90;;;0.80;;
7515;SDS011;3799;47.184;8.538;2022-12-29T15:28:04;2.58;;;0.63;;
7515;SDS011;3799;47.184;8.538;2022-12-29T15:30:32;2.05;;;0.85;;
7515;SDS011;3799;47.184;8.538;2022-12-29T15:32:59;4.32;;;1.02;;
7515;SDS011;3799;47.184;8.538;2022-12-29T15:35:37;2.10;;;0.75;;
7515;SDS011;3799;47.184;8.538;2022-12-29T15:38:14;2.45;;;0.88;;
7515;SDS011;3799;47.184;8.538;2022-12-29T15:41:06;2.10;;;0.77;;
7515;SDS011;3799;47.184;8.538;2022-12-29T15:46:22;3.72;;;1.38;;
7515;SDS011;3799;47.184;8.538;2022-12-29T15:48:50;3.70;;;0.63;;
7515;SDS011;3799;47.184;8.538;2022-12-29T15:51:18;3.33;;;0.80;;
7515;SDS011;3799;47.184;8.538;2022-12-29T15:53:52;3.15;;;0.98;;
7515;SDS011;3799;47.184;8.538;2022-12-29T15:56:20;3.20;;;0.93;;
7515;SDS011;3799;47.184;8.538;2022-12-29T15:58:48;2.70;;;0.85;;
7515;SDS011;3799;47.184;8.538;2022-12-29T16:01:18;2.28;;;0.88;;
7515;SDS011;3799;47.184;8.538;2022-12-29T16:03:50;3.65;;;1.70;;
7515;SDS011;3799;47.184;8.538;2022-12-29T16:06:28;3.60;;;1.45;;
7515;SDS011;3799;47.184;8.538;2022-12-29T16:09:04;5.85;;;1.20;;
7515;SDS011;3799;47.184;8.538;2022-12-29T16:11:37;4.10;;;1.08;;
7515;SDS011;3799;47.184;8.538;2022-12-29T16:14:07;5.53;;;1.48;;
7515;SDS011;3799;47.184;8.538;2022-12-29T16:16:41;2.75;;;0.93;;
7515;SDS011;3799;47.184;8.538;2022-12-29T16:19:56;4.28;;;1.25;;
7515;SDS011;3799;47.184;8.538;2022-12-29T16:22:03;3.00;;;1.15;;
7515;SDS011;3799;47.184;8.538;2022-12-29T16:24:37;3.85;;;1.10;;
7515;SDS011;3799;47.184;8.538;2022-12-29T16:27:07;2.70;;;1.17;;
7515;SDS011;3799;47.184;8.538;2022-12-29T16:29:56;3.95;;;1.30;;
7515;SDS011;3799;47.184;8.538;2022-12-29T16:32:27;4.28;;;1.38;;
7515;SDS011;3799;47.184;8.538;2022-12-29T16:35:34;2.92;;;0.88;;
7515;SDS011;3799;47.184;8.538;2022-12-29T16:38:08;3.67;;;1.30;;
7515;SDS011;3799;47.184;8.538;2022-12-29T16:40:58;6.53;;;1.60;;
7515;SDS011;3799;47.184;8.538;2022-12-29T16:43:29;3.90;;;1.25;;
7515;SDS011;3799;47.184;8.538;2022-12-29T16:48:26;2.85;;;1.38;;
7515;SDS011;3799;47.184;8.538;2022-12-29T16:51:01;8.07;;;1.42;;
7515;SDS011;3799;47.184;8.538;2022-12-29T16:56:17;3.60;;;1.25;;
7515;SDS011;3799;47.184;8.538;2022-12-29T16:58:47;2.70;;;1.05;;
7515;SDS011;3799;47.184;8.538;2022-12-29T17:01:16;5.45;;;1.67;;
7515;SDS011;3799;47.184;8.538;2022-12-29T17:03:52;5.20;;;1.60;;
7515;SDS011;3799;47.184;8.538;2022-12-29T17:06:23;3.30;;;1.13;;
7515;SDS011;3799;47.184;8.538;2022-12-29T17:08:50;5.43;;;2.47;;
7515;SDS011;3799;47.184;8.538;2022-12-29T17:11:23;5.53;;;1.40;;
7515;SDS011;3799;47.184;8.538;2022-12-29T17:14:30;4.07;;;1.02;;
7515;SDS011;3799;47.184;8.538;2022-12-29T17:19:42;5.18;;;1.70;;
7515;SDS011;3799;47.184;8.538;2022-12-29T17:22:15;2.97;;;1.20;;
7515;SDS011;3799;47.184;8.538;2022-12-29T17:24:44;5.18;;;1.17;;
7515;SDS011;3799;47.184;8.538;2022-12-29T17:27:18;2.67;;;0.98;;
7515;SDS011;3799;47.184;8.538;2022-12-29T17:29:56;3.35;;;1.38;;
7515;SDS011;3799;47.184;8.538;2022-12-29T17:32:26;2.25;;;0.93;;
7515;SDS011;3799;47.184;8.538;2022-12-29T17:34:53;2.92;;;1.50;;
7515;SDS011;3799;47.184;8.538;2022-12-29T17:39:50;3.72;;;0.90;;
7515;SDS011;3799;47.184;8.538;2022-12-29T17:42:17;5.85;;;1.60;;
7515;SDS011;3799;47.184;8.538;2022-12-29T17:44:45;4.60;;;1.35;;
7515;SDS011;3799;47.184;8.538;2022-12-29T17:47:12;3.42;;;1.05;;
7515;SDS011;3799;47.184;8.538;2022-12-29T17:49:41;2.95;;;1.02;;
7515;SDS011;3799;47.184;8.538;2022-12-29T17:52:12;3.55;;;1.10;;
7515;SDS011;3799;47.184;8.538;2022-12-29T17:54:45;3.80;;;0.82;;
7515;SDS011;3799;47.184;8.538;2022-12-29T17:57:17;2.95;;;1.02;;
7515;SDS011;3799;47.184;8.538;2022-12-29T17:59:45;3.60;;;1.05;;
7515;SDS011;3799;47.184;8.538;2022-12-29T18:02:23;3.38;;;0.93;;
7515;SDS011;3799;47.184;8.538;2022-12-29T18:04:56;2.17;;;0.95;;
7515;SDS011;3799;47.184;8.538;2022-12-29T18:07:28;3.55;;;1.83;;
7515;SDS011;3799;47.184;8.538;2022-12-29T18:10:01;2.92;;;0.82;;
7515;SDS011;3799;47.184;8.538;2022-12-29T18:12:30;2.72;;;1.00;;
7515;SDS011;3799;47.184;8.538;2022-12-29T18:15:03;2.95;;;1.13;;